Sheffield — A8SZ2 — position and weather

sailwx.info

Track history (hours):
 
Tides and Currents Weather Stations Pressure Air Temp Water Temp Dewpoint Dewpoint Depression Visibility Wind Speed Wind Dir Waves Ship Positions

Sheffield

Last reported at 2018-Feb-03 19:52 UTC. Time now 2018-Feb-23 04:35 UTC.
Position N 41°34' E 141°32'.
Warning: this ship's position is 19 days out of date.

Length 188 m; draft 11.8 m.

Type: Cargo ship. MMSI: 636017691.

Date/timePositionNaut miles runAvg speedWind from/ knotsBaromVisibWave heightAir tempDewpointWater temp
2018-Feb-03 19:52N 41°34' E 141°32'6 4.8
2018-Feb-03 18:31N 41°36' E 141°24'2 4.6
2018-Feb-03 18:00N 41°36' E 141°21'2 4.3
2018-Feb-03 17:31N 41°36' E 141°18'2 4.2
2018-Feb-03 17:01N 41°36' E 141°15'3 3.4
2018-Feb-03 16:00N 41°37' E 141°11'2 3.2
2018-Feb-03 15:30N 41°36' E 141°09'2 4.1
2018-Feb-03 15:00N 41°36' E 141°06'2 4.3
2018-Feb-03 14:30N 41°36' E 141°03'2 4.9
2018-Feb-03 14:00N 41°36' E 140°60'2 4.7
2018-Feb-03 13:30N 41°36' E 140°57'2 4.2
2018-Feb-03 13:00N 41°36' E 140°54'2 3.9
2018-Feb-03 12:30N 41°36' E 140°51'2 4.9
2018-Feb-03 12:00N 41°35' E 140°48'3 6.3
2018-Feb-03 11:30N 41°34' E 140°45'4 7.9
2018-Feb-03 11:01N 41°32' E 140°40'4 7.9
2018-Feb-03 10:30N 41°29' E 140°36'4 8.2
2018-Feb-03 09:59N 41°27' E 140°31'4 8.8
2018-Feb-03 09:30N 41°25' E 140°26'  
Track history (hours):
 
Tides and Currents Weather Stations Pressure Air Temp Water Temp Dewpoint Dewpoint Depression Visibility Wind Speed Wind Dir Waves Ship Positions

Sheffield

Last reported at 2018-Feb-03 19:52 UTC. Time now 2018-Feb-23 04:35 UTC.
Position N 41°34' E 141°32'.
Warning: this ship's position is 19 days out of date.

Length 188 m; draft 11.8 m.

Type: Cargo ship. MMSI: 636017691.

Date/timePositionNaut miles runAvg speedWind from/ knotsBaromVisibWave heightAir tempDewpointWater temp
2018-Feb-03 19:52N 41°34' E 141°32'6 4.8
2018-Feb-03 18:31N 41°36' E 141°24'2 4.6
2018-Feb-03 18:00N 41°36' E 141°21'2 4.3
2018-Feb-03 17:31N 41°36' E 141°18'2 4.2
2018-Feb-03 17:01N 41°36' E 141°15'3 3.4
2018-Feb-03 16:00N 41°37' E 141°11'2 3.2
2018-Feb-03 15:30N 41°36' E 141°09'2 4.1
2018-Feb-03 15:00N 41°36' E 141°06'2 4.3
2018-Feb-03 14:30N 41°36' E 141°03'2 4.9
2018-Feb-03 14:00N 41°36' E 140°60'2 4.7
2018-Feb-03 13:30N 41°36' E 140°57'2 4.2
2018-Feb-03 13:00N 41°36' E 140°54'2 3.9
2018-Feb-03 12:30N 41°36' E 140°51'2 4.9
2018-Feb-03 12:00N 41°35' E 140°48'3 6.3
2018-Feb-03 11:30N 41°34' E 140°45'4 7.9
2018-Feb-03 11:01N 41°32' E 140°40'4 7.9
2018-Feb-03 10:30N 41°29' E 140°36'4 8.2
2018-Feb-03 09:59N 41°27' E 140°31'4 8.8
2018-Feb-03 09:30N 41°25' E 140°26'  

Dump ship's entire track history